createdAt,value
2023-03-05T00:01:51.666Z,4.19
2023-03-05T00:04:19.631Z,4.11
2023-03-05T00:06:47.619Z,3.97
2023-03-05T00:09:15.994Z,3.96
2023-03-05T00:11:44.669Z,3.76
2023-03-05T00:14:13.116Z,3.53
2023-03-05T00:16:42.526Z,3.59
2023-03-05T00:21:52.918Z,3.72
2023-03-05T00:24:20.637Z,3.73
2023-03-05T00:26:48.770Z,3.54
2023-03-05T00:29:18.958Z,3.42
2023-03-05T00:31:47.452Z,3.66
2023-03-05T00:34:18.235Z,3.80
2023-03-05T00:36:53.209Z,3.72
2023-03-05T00:39:22.606Z,3.54
2023-03-05T00:41:58.946Z,3.27
2023-03-05T00:47:10.570Z,3.58
2023-03-05T00:49:41.374Z,3.67
2023-03-05T00:52:09.599Z,3.83
2023-03-05T00:54:42.513Z,3.73
2023-03-05T00:59:52.628Z,3.96
2023-03-05T01:02:20.589Z,4.04
2023-03-05T01:07:39.592Z,4.03
2023-03-05T01:10:18.166Z,4.14
2023-03-05T01:15:28.811Z,3.85
2023-03-05T01:18:01.539Z,3.61
2023-03-05T01:20:38.801Z,3.51
2023-03-05T01:23:06.569Z,3.75
2023-03-05T01:25:34.461Z,3.94
2023-03-05T01:28:02.815Z,4.01
2023-03-05T01:30:30.660Z,3.98
2023-03-05T01:32:59.560Z,3.78
2023-03-05T01:35:27.497Z,3.67
2023-03-05T01:38:00.371Z,3.93
2023-03-05T01:40:31.020Z,4.01
2023-03-05T01:43:06.923Z,4.00
2023-03-05T01:45:35.083Z,3.91
2023-03-05T01:48:03.565Z,3.66
2023-03-05T01:50:31.961Z,3.67
2023-03-05T01:53:04.427Z,3.77
2023-03-05T01:55:34.854Z,3.95
2023-03-05T01:58:11.584Z,3.94
2023-03-05T02:00:51.087Z,3.79
2023-03-05T02:03:20.896Z,3.75
2023-03-05T02:05:48.924Z,3.98
2023-03-05T02:08:21.888Z,4.12
2023-03-05T02:10:53.215Z,4.04
2023-03-05T02:13:43.273Z,4.06
2023-03-05T02:16:11.300Z,4.00
2023-03-05T02:18:39.196Z,4.11
2023-03-05T02:21:09.213Z,4.08
2023-03-05T02:23:38.523Z,4.02
2023-03-05T02:26:09.950Z,4.15
2023-03-05T02:28:48.086Z,4.15
2023-03-05T02:31:19.545Z,4.17
2023-03-05T02:33:50.298Z,4.22
2023-03-05T02:36:19.898Z,4.20
2023-03-05T02:38:48.282Z,4.11
2023-03-05T02:41:17.301Z,4.09
2023-03-05T02:43:45.197Z,4.08
2023-03-05T02:46:13.582Z,4.22
2023-03-05T02:48:41.568Z,4.24
2023-03-05T02:51:12.380Z,4.20
2023-03-05T02:53:40.514Z,4.18
2023-03-05T02:57:29.409Z,3.74
2023-03-05T02:59:57.639Z,3.80
2023-03-05T03:02:25.550Z,3.94
2023-03-05T03:04:53.712Z,4.01
2023-03-05T03:07:21.518Z,3.94
2023-03-05T03:09:49.712Z,4.00
2023-03-05T03:12:17.655Z,4.03
2023-03-05T03:14:45.690Z,4.07
2023-03-05T03:17:15.882Z,4.08
2023-03-05T03:19:45.298Z,3.94
2023-03-05T03:22:14.505Z,4.03
2023-03-05T03:24:43.681Z,4.02
2023-03-05T03:27:11.704Z,4.13
2023-03-05T03:29:39.652Z,4.04
2023-03-05T03:32:08.873Z,4.12
2023-03-05T03:34:36.902Z,3.97
2023-03-05T03:37:04.939Z,4.06
2023-03-05T03:39:32.984Z,3.64
2023-03-05T03:42:01.013Z,3.77
2023-03-05T03:44:28.923Z,3.76
2023-03-05T03:46:56.870Z,3.71
2023-03-05T03:49:26.283Z,3.92
2023-03-05T03:51:54.936Z,4.00
2023-03-05T03:54:23.362Z,4.13
2023-03-05T03:56:51.948Z,4.17
2023-03-05T03:59:19.985Z,4.10
2023-03-05T04:01:48.227Z,3.89
2023-03-05T04:04:16.371Z,4.11
2023-03-05T04:06:47.854Z,4.12
2023-03-05T04:09:16.035Z,4.11
2023-03-05T04:11:44.060Z,4.21
2023-03-05T04:14:12.104Z,4.17
2023-03-05T04:16:40.141Z,4.15
2023-03-05T04:19:08.190Z,4.20
2023-03-05T04:21:36.206Z,4.19
2023-03-05T04:24:04.601Z,4.27
2023-03-05T04:26:32.682Z,4.20
2023-03-05T04:29:00.538Z,4.24
2023-03-05T04:31:28.926Z,4.34
2023-03-05T04:33:56.791Z,4.36
2023-03-05T04:36:24.833Z,4.22
2023-03-05T04:38:52.906Z,4.27
2023-03-05T04:41:20.950Z,4.39
2023-03-05T04:43:48.872Z,4.48
2023-03-05T04:46:17.081Z,4.40
2023-03-05T04:48:45.012Z,4.38
2023-03-05T04:51:13.329Z,4.49
2023-03-05T04:53:41.208Z,4.48
2023-03-05T04:56:09.218Z,4.39
2023-03-05T04:58:37.139Z,4.32
2023-03-05T05:01:06.810Z,4.32
2023-03-05T05:03:34.996Z,4.45
2023-03-05T05:06:03.101Z,4.49
2023-03-05T05:08:31.185Z,4.45
2023-03-05T05:11:05.208Z,4.51
2023-03-05T05:13:33.862Z,4.47
2023-03-05T05:16:02.391Z,4.53
2023-03-05T05:18:30.382Z,4.53
2023-03-05T05:20:58.321Z,4.49
2023-03-05T05:23:26.385Z,4.63
2023-03-05T05:26:02.147Z,4.67
2023-03-05T05:28:30.928Z,4.64
2023-03-05T05:30:59.093Z,4.76
2023-03-05T05:33:27.335Z,4.77
2023-03-05T05:35:55.508Z,4.83
2023-03-05T05:38:23.420Z,4.84
2023-03-05T05:40:51.429Z,4.84
2023-03-05T05:43:19.362Z,4.91
2023-03-05T05:45:47.536Z,5.04
2023-03-05T05:48:16.160Z,5.09
2023-03-05T05:50:44.169Z,5.13
2023-03-05T05:53:12.058Z,5.31
2023-03-05T05:55:42.765Z,5.27
2023-03-05T05:58:10.733Z,5.36
2023-03-05T06:00:39.295Z,5.55
2023-03-05T06:03:08.131Z,5.64
2023-03-05T06:05:36.122Z,5.54
2023-03-05T06:08:04.823Z,5.54
2023-03-05T06:10:32.809Z,5.68
2023-03-05T06:13:00.906Z,5.75
2023-03-05T06:15:29.339Z,5.83
2023-03-05T06:17:59.778Z,5.85
2023-03-05T06:20:28.940Z,5.78
2023-03-05T06:22:57.074Z,5.80
2023-03-05T06:25:24.951Z,5.88
2023-03-05T06:27:52.924Z,6.05
2023-03-05T06:30:20.946Z,6.07
2023-03-05T06:32:49.040Z,6.10
2023-03-05T06:35:17.151Z,6.05
2023-03-05T06:37:45.191Z,6.12
2023-03-05T06:40:13.694Z,6.18
2023-03-05T06:42:41.634Z,6.21
2023-03-05T06:45:10.410Z,6.29
2023-03-05T06:47:38.378Z,6.20
2023-03-05T06:50:07.537Z,6.00
2023-03-05T06:52:35.653Z,6.00
2023-03-05T06:55:04.000Z,5.90
2023-03-05T06:57:31.975Z,5.85
2023-03-05T07:00:00.108Z,5.73
2023-03-05T07:02:28.025Z,5.81
2023-03-05T07:04:56.435Z,5.87
2023-03-05T07:07:24.434Z,5.95
2023-03-05T07:09:54.001Z,6.07
2023-03-05T07:12:22.091Z,6.25
2023-03-05T07:14:51.043Z,6.55
2023-03-05T07:17:18.973Z,6.82
2023-03-05T07:19:46.981Z,7.13
2023-03-05T07:22:14.894Z,7.42
2023-03-05T07:24:42.916Z,7.73
2023-03-05T07:27:10.801Z,8.08
2023-03-05T07:29:39.203Z,8.17
2023-03-05T07:32:07.802Z,8.16
2023-03-05T07:34:37.798Z,8.36
2023-03-05T07:37:06.217Z,8.26
2023-03-05T07:39:36.965Z,8.34
2023-03-05T07:42:05.385Z,8.30
2023-03-05T07:44:50.169Z,8.45
2023-03-05T07:47:18.957Z,8.46
2023-03-05T07:49:47.390Z,8.30
2023-03-05T07:52:15.608Z,8.17
2023-03-05T07:54:44.150Z,8.06
2023-03-05T07:57:13.798Z,8.06
2023-03-05T07:59:43.395Z,7.91
2023-03-05T08:02:13.514Z,8.03
2023-03-05T08:04:43.560Z,7.59
2023-03-05T08:07:16.382Z,7.91
2023-03-05T08:09:44.809Z,8.05
2023-03-05T08:12:13.607Z,8.16
2023-03-05T08:14:41.815Z,8.13
2023-03-05T08:17:10.278Z,8.19
2023-03-05T08:19:38.857Z,8.21
2023-03-05T08:22:07.362Z,7.89
2023-03-05T08:24:35.675Z,7.98
2023-03-05T08:27:04.269Z,8.06
2023-03-05T08:29:32.698Z,8.00
2023-03-05T08:32:01.663Z,7.78
2023-03-05T08:34:30.190Z,7.55
2023-03-05T08:36:58.766Z,7.72
2023-03-05T08:39:27.382Z,7.66
2023-03-05T08:41:56.071Z,7.61
2023-03-05T08:44:24.675Z,7.52
2023-03-05T08:46:53.100Z,7.69
2023-03-05T08:49:21.953Z,7.63
2023-03-05T08:51:50.804Z,7.72
2023-03-05T08:54:19.285Z,7.80
2023-03-05T08:56:47.789Z,8.05
2023-03-05T08:59:16.958Z,8.34
2023-03-05T09:01:45.542Z,8.53
2023-03-05T09:04:14.006Z,8.68
2023-03-05T09:06:42.847Z,8.43
2023-03-05T09:09:11.469Z,8.35
2023-03-05T09:11:40.060Z,8.46
2023-03-05T09:14:08.582Z,8.18
2023-03-05T09:16:38.734Z,8.26
2023-03-05T09:19:13.165Z,8.52
2023-03-05T09:21:42.637Z,8.55
2023-03-05T09:24:12.166Z,8.74
2023-03-05T09:26:42.503Z,9.03
2023-03-05T09:29:10.760Z,9.45
2023-03-05T09:31:39.240Z,9.91
2023-03-05T09:34:09.606Z,10.83
2023-03-05T09:36:38.311Z,11.57
2023-03-05T09:39:07.356Z,12.66
2023-03-05T09:41:55.419Z,14.36
2023-03-05T09:44:41.979Z,14.52
2023-03-05T09:47:24.431Z,14.77
2023-03-05T09:50:33.514Z,15.13
2023-03-05T09:53:33.698Z,15.97
2023-03-05T09:56:14.513Z,16.08
2023-03-05T09:58:51.526Z,16.71
2023-03-05T10:01:30.289Z,17.08
2023-03-05T10:04:12.919Z,16.34
2023-03-05T10:06:52.491Z,16.15
2023-03-05T10:09:46.118Z,14.63
2023-03-05T10:12:45.035Z,13.67
2023-03-05T10:15:15.191Z,13.27
2023-03-05T10:17:59.555Z,12.70
2023-03-05T10:20:35.892Z,12.88
2023-03-05T10:23:29.847Z,12.20
2023-03-05T10:26:25.858Z,12.44
2023-03-05T10:29:21.263Z,12.17
2023-03-05T10:32:27.903Z,12.19
2023-03-05T10:35:22.071Z,11.62
2023-03-05T10:38:08.709Z,11.21
2023-03-05T10:40:44.805Z,11.28
2023-03-05T10:43:37.935Z,10.74
2023-03-05T10:46:06.662Z,10.53
2023-03-05T10:48:51.788Z,10.54
2023-03-05T10:51:22.701Z,10.49
2023-03-05T10:53:50.784Z,10.62
2023-03-05T10:56:23.297Z,10.48
2023-03-05T10:58:53.132Z,10.45
2023-03-05T11:01:25.270Z,10.17
2023-03-05T11:04:07.118Z,10.22
2023-03-05T11:06:37.309Z,10.09
2023-03-05T11:09:32.877Z,10.05
2023-03-05T11:12:26.875Z,9.90
2023-03-05T11:15:10.564Z,9.92
2023-03-05T11:17:45.580Z,9.92
2023-03-05T11:20:32.277Z,9.94
2023-03-05T11:23:04.400Z,9.64
2023-03-05T11:25:51.717Z,9.54
2023-03-05T11:28:32.928Z,9.61
2023-03-05T11:31:16.247Z,9.70
2023-03-05T11:34:19.680Z,9.68
2023-03-05T11:36:53.593Z,9.75
2023-03-05T11:39:23.989Z,9.78
2023-03-05T11:41:59.486Z,9.20
2023-03-05T11:44:50.834Z,9.77
2023-03-05T11:47:25.734Z,10.11
2023-03-05T11:50:11.106Z,10.21
2023-03-05T11:52:47.190Z,10.07
2023-03-05T11:55:38.156Z,10.12
2023-03-05T11:58:34.519Z,10.19
2023-03-05T12:01:07.446Z,10.17
2023-03-05T12:03:39.266Z,10.16
2023-03-05T12:06:15.007Z,10.24
2023-03-05T12:08:47.806Z,10.14
2023-03-05T12:11:36.616Z,9.92
2023-03-05T12:14:46.529Z,10.02
2023-03-05T12:17:23.428Z,9.88
2023-03-05T12:20:00.513Z,9.98
2023-03-05T12:22:37.144Z,9.81
2023-03-05T12:25:48.998Z,9.77
2023-03-05T12:28:43.049Z,9.85
2023-03-05T12:31:29.901Z,10.03
2023-03-05T12:33:58.373Z,10.12
2023-03-05T12:36:36.978Z,10.10
2023-03-05T12:39:43.999Z,9.73
2023-03-05T12:42:30.757Z,10.02
2023-03-05T12:45:17.014Z,10.09
2023-03-05T12:48:12.659Z,9.90
2023-03-05T12:50:43.463Z,10.11
2023-03-05T12:53:17.918Z,10.09
2023-03-05T12:55:46.241Z,10.17
2023-03-05T12:58:26.738Z,9.86
2023-03-05T13:01:13.524Z,10.01
2023-03-05T13:04:11.097Z,10.05
2023-03-05T13:06:40.039Z,10.11
2023-03-05T13:09:20.029Z,10.17
2023-03-05T13:11:51.510Z,10.14
2023-03-05T13:14:42.848Z,9.88
2023-03-05T13:18:03.910Z,10.00
2023-03-05T13:20:34.830Z,9.89
2023-03-05T13:23:28.223Z,9.81
2023-03-05T13:26:20.904Z,9.93
2023-03-05T13:29:04.190Z,9.71
2023-03-05T13:31:35.935Z,9.76
2023-03-05T13:34:45.876Z,9.80
2023-03-05T13:37:17.338Z,9.72
2023-03-05T13:39:52.437Z,9.65
2023-03-05T13:42:32.726Z,9.79
2023-03-05T13:45:06.331Z,9.79
2023-03-05T13:47:37.023Z,9.86
2023-03-05T13:50:09.072Z,9.36
2023-03-05T13:52:38.940Z,9.54
2023-03-05T13:55:17.913Z,9.51
2023-03-05T13:57:51.001Z,9.45
2023-03-05T14:00:35.477Z,9.27
2023-03-05T14:03:36.268Z,9.24
2023-03-05T14:06:11.041Z,9.26
2023-03-05T14:08:40.508Z,9.20
2023-03-05T14:11:14.736Z,9.20
2023-03-05T14:13:45.390Z,9.23
2023-03-05T14:16:25.877Z,9.15
2023-03-05T14:18:59.209Z,9.05
2023-03-05T14:21:45.466Z,9.03
2023-03-05T14:24:21.897Z,9.01
2023-03-05T14:26:58.964Z,9.05
2023-03-05T14:29:29.354Z,9.21
2023-03-05T14:32:03.275Z,9.16
2023-03-05T14:34:35.780Z,9.09
2023-03-05T14:37:08.152Z,8.99
2023-03-05T14:39:46.534Z,8.83
2023-03-05T14:42:27.381Z,8.90
2023-03-05T14:44:57.316Z,8.80
2023-03-05T14:47:27.277Z,8.61
2023-03-05T14:49:56.194Z,8.41
2023-03-05T14:52:26.058Z,8.37
2023-03-05T14:54:55.674Z,8.41
2023-03-05T14:57:27.913Z,8.47
2023-03-05T14:59:56.600Z,8.54
2023-03-05T15:02:27.279Z,8.64
2023-03-05T15:04:55.782Z,8.56
2023-03-05T15:07:31.347Z,8.53
2023-03-05T15:10:00.417Z,8.46
2023-03-05T15:12:29.060Z,8.36
2023-03-05T15:14:57.781Z,8.40
2023-03-05T15:17:47.821Z,8.49
2023-03-05T15:20:24.350Z,8.56
2023-03-05T15:22:53.854Z,8.44
2023-03-05T15:25:24.869Z,8.49
2023-03-05T15:27:53.528Z,8.39
2023-03-05T15:30:29.002Z,8.42
2023-03-05T15:33:00.845Z,8.35
2023-03-05T15:35:29.636Z,8.24
2023-03-05T15:37:58.780Z,8.28
2023-03-05T15:40:28.738Z,8.13
2023-03-05T15:42:59.140Z,8.15
2023-03-05T16:04:44.806Z,7.85
2023-03-05T16:10:00.811Z,7.76
2023-03-05T16:42:35.145Z,7.67
2023-03-05T16:45:14.087Z,7.62
2023-03-05T16:50:26.497Z,7.59
2023-03-05T16:52:55.455Z,7.48
2023-03-05T17:11:49.936Z,6.99
2023-03-05T17:25:08.966Z,6.81
2023-03-05T17:52:02.436Z,6.37
2023-03-05T18:02:51.403Z,6.30
2023-03-05T18:27:07.007Z,5.93
2023-03-05T18:29:44.927Z,5.84
2023-03-05T19:19:30.197Z,5.18
2023-03-05T20:10:48.275Z,4.18
2023-03-05T20:13:16.603Z,4.09
2023-03-05T20:15:46.508Z,4.01
2023-03-05T20:18:15.045Z,4.00
2023-03-05T20:20:44.333Z,3.95
2023-03-05T20:23:13.097Z,4.06
2023-03-05T20:25:41.559Z,3.91
2023-03-05T20:28:10.064Z,3.78
2023-03-05T20:30:38.343Z,3.83
2023-03-05T20:33:06.973Z,3.82
2023-03-05T20:35:35.710Z,3.87
2023-03-05T20:38:21.289Z,3.59
2023-03-05T20:40:52.281Z,3.70
2023-03-05T20:43:21.852Z,3.65
2023-03-05T20:45:51.058Z,3.63
2023-03-05T20:48:20.242Z,3.72
2023-03-05T20:50:48.753Z,3.71
2023-03-05T20:53:17.676Z,3.56
2023-03-05T20:55:46.354Z,3.39
2023-03-05T20:58:15.006Z,3.50
2023-03-05T21:00:43.587Z,3.53
2023-03-05T21:03:12.155Z,3.59
2023-03-05T21:05:40.528Z,3.54
2023-03-05T21:08:08.781Z,3.58
2023-03-05T21:10:37.973Z,3.66
2023-03-05T21:13:05.961Z,3.39
2023-03-05T21:15:34.153Z,3.49
2023-03-05T21:18:02.504Z,3.48
2023-03-05T21:20:30.765Z,3.59
2023-03-05T21:22:59.568Z,3.61
2023-03-05T21:25:31.744Z,3.55
2023-03-05T21:28:16.756Z,3.52
2023-03-05T21:30:48.468Z,3.45
2023-03-05T21:33:19.572Z,3.47
2023-03-05T21:35:47.756Z,3.45
2023-03-05T21:38:15.987Z,3.43
2023-03-05T21:40:45.860Z,3.43
2023-03-05T21:43:15.571Z,3.45
2023-03-05T21:45:44.238Z,3.29
2023-03-05T21:48:12.305Z,3.19
2023-03-05T21:50:42.625Z,3.22
2023-03-05T21:53:12.384Z,3.17
2023-03-05T21:56:03.246Z,2.98
2023-03-05T21:58:34.031Z,2.78
2023-03-05T22:01:02.353Z,2.66
2023-03-05T22:03:30.934Z,2.85
2023-03-05T22:05:58.735Z,2.78
2023-03-05T22:08:26.579Z,2.73
2023-03-05T22:10:54.747Z,2.65
2023-03-05T22:13:22.604Z,2.64
2023-03-05T22:15:55.040Z,2.62
2023-03-05T22:18:28.688Z,2.50
2023-03-05T22:20:58.155Z,2.41
2023-03-05T22:23:28.216Z,2.45
2023-03-05T22:25:57.652Z,2.38
2023-03-05T22:28:26.759Z,2.34
2023-03-05T22:30:55.484Z,2.20
2023-03-05T22:33:23.731Z,2.28
2023-03-05T22:35:51.975Z,2.26
2023-03-05T22:38:20.394Z,2.11
2023-03-05T22:40:49.959Z,2.07
2023-03-05T22:43:19.255Z,2.15
2023-03-05T22:45:47.379Z,2.11
2023-03-05T22:48:15.954Z,1.79
2023-03-05T22:50:46.825Z,1.86
2023-03-05T22:53:15.551Z,1.84
2023-03-05T22:55:43.451Z,1.96
2023-03-05T22:58:13.453Z,1.86
2023-03-05T23:00:41.788Z,1.81
2023-03-05T23:03:09.812Z,1.75
2023-03-05T23:05:39.316Z,1.83
2023-03-05T23:08:08.481Z,1.62
2023-03-05T23:10:36.635Z,1.42
2023-03-05T23:13:04.486Z,1.59
2023-03-05T23:15:35.885Z,1.64
2023-03-05T23:18:06.712Z,1.69
2023-03-05T23:20:36.717Z,1.66
2023-03-05T23:23:04.767Z,1.77
2023-03-05T23:25:35.094Z,1.72
2023-03-05T23:28:04.569Z,1.68
2023-03-05T23:30:35.120Z,1.55
2023-03-05T23:33:07.752Z,1.58
2023-03-05T23:35:39.213Z,1.41
2023-03-05T23:38:09.914Z,1.47
2023-03-05T23:40:41.690Z,1.49
2023-03-05T23:43:11.117Z,1.56
2023-03-05T23:45:42.023Z,1.16
2023-03-05T23:48:10.105Z,1.04
2023-03-05T23:50:41.465Z,1.13
2023-03-05T23:53:10.033Z,1.31
2023-03-05T23:55:43.584Z,1.22
2023-03-05T23:58:11.790Z,1.07
